Tipitapa, Nicaragua
Current Conditions -  °F | °C
As of 6:00 PM on Saturday 22 Nov 2014 (Local Time) from MNMG Reporting Station
Scattered Clouds Scattered Clouds  
Wind Chill: 79°   Ceiling: Unl
Heat Index: 82°   Visibility: 6mi
Dew Point: 73°   Wind: 5mph
Humidity: 83%   Direction: 80°E
Pressure: 29.83"   Gusts: NA
Location:  12.2°N, 86.1°W
Report Text: MNMG 230000Z 08004KT 9999 FEW020CB SCT021 26/23 Q1010 A2983 CB/N/NE/E/SE/W/NW REDZ NOSIG
Loading
Personal Weather Stations






























Interactive Weather Map New forecast layout! Learn more

10-Day Weather Forecast

Advertisements
Track Severe Weather on mobile